Fairbanks, AK (99712)

5:40 PM AKST on February 13, 2016 (GMT -0900)
HADS | | Change Station
CLOSE
Current Station
Personal Weather Station
Location: Fairbanks, AK
Elevation: 2119 ft
Nearby Weather Stations

Elev 2119 ft 65.36 °N, 146.09 °W | Updated 40 minutes ago

Partly Cloudy
Partly Cloudy
22 °F
Feels Like 22 °F
N
3
Wind Variable Wind from West
Gusts 4.0 mph

Today
High -- | Low -- °F
--% Chance of Precip.
Yesterday
High -- | Low -- °F
Precip. -- in
Pressure 29.49 in
Visibility 10.0 miles
Clouds Few 9500 ft
Windchill 22 °F
Dew Point 16 °F
Humidity 79%
Rainfall in
Snow Depth Not available.
8:56 AM 5:08 PM
Waxing Crescent, 36% visible
METAR PAFB 140158Z AUTO 26003KT 10SM FEW095 M10/M14 A2945 RMK AO2 SLP985 T11031138 $
Pressure 29.49 in
Visibility 10.0 miles
Clouds Few 9500 ft
Windchill 22 °F
Dew Point 16 °F
Humidity 79%
Rainfall in
Snow Depth Not available.
8:56 AM 5:08 PM
Waxing Crescent, 36% visible
METAR PAFB 140158Z AUTO 26003KT 10SM FEW095 M10/M14 A2945 RMK AO2 SLP985 T11031138 $

10-Day Weather Forecast

Almanac

Astronomy

Feb. 13, 2016 Rise Set
Actual Time
Civil Twilight
Nautical Twilight
Astronomical Twilight
Moon
Length of Visible Light
Length of Day
Tomorrow will be .
, % of the Moon is Illuminated

Today's Extremes

State Highs State Lows

Community

WunderPhotos

Upload Photos

1,892,730 photos uploaded!

WunderBlog® & News

Nearby

Air Quality

  Air Quality AQ Index Pollutant
Not available.

Snow Depth

Station Depth Elevation

Earthquake Activity

City Distance Mag. Time & Date
Minimum magnitude displayed is 2.5.

Coastal Water Temperatures

Place Temperature

Stations

Nearby Weather Stations

Station Location Temp. Windchill Dew Point Humidity Wind Precip. Elev Updated Type
                   

Watches & Warnings

There are currently no watches in effect.